Main page
METAR-TAF:

METAR-TAF

Airports :

Djibouti–Ambouli International Airport

Djibouti, Djibouti

latitude: 11-33N, longitude: 043-10E, elevation: 49 m

Current weather observation

The report was made 8 hours and 52 minutes ago, at 16:00 UTC
Wind 5 kt from the East/Southeast
Temperature 29°C
Humidity 79%
Pressure 1015 hPa
Visibility 10 km or more
no clouds below 1500 m and no cumulonimbus

METAR: HDAM 201600Z 11005KT CAVOK 29/25 Q1015

Time: 03:52 (00:52 UTC)

Forecast

The report was made 7 hours and 52 minutes ago, at 17:00 UTC
Forecast valid from 20 at 18 UTC to 21 at 18 UTC
Wind 5 kt from variable directions
Visibility 10 km or more
Few clouds at a height of 2000 ft
Becoming
from 21 at 00 UTC to 21 at 06 UTC
Wind kt from the North
Few clouds at a height of 2000 ft
Becoming
from 21 at 06 UTC to 21 at 12 UTC
Wind 10 kt from the East
Scattered clouds at a height of 2300 ft

TAF: HDAM 201700Z 2018/2118 VRB05KT 9999 FEW020 BECMG 2100/2106 00000KT FEW020 BECMG 2106/2112 08010KT SCT023

Weather observations and forecasts of more than 4000 airports (METAR and TAF reports).

The available stations are represented by yellow and red dots on the map.

Hover mouse over dot to see the name of the station.

Then click to see weather observations and forecasts.

To change the map : click on the green buttons with a black cross to zoom in, on the green button with a dash to zoom out, or on the green arrows for adjacent maps.


METAR-TAF: